createdAt,value
2018-09-24T00:00:03.954Z,97424.30
2018-09-24T00:02:37.546Z,97432.79
2018-09-24T00:05:08.586Z,97453.06
2018-09-24T00:07:39.272Z,97449.72
2018-09-24T00:10:08.764Z,97455.61
2018-09-24T00:12:38.586Z,97459.02
2018-09-24T00:15:08.847Z,97468.87
2018-09-24T00:17:38.733Z,97470.85
2018-09-24T00:20:09.602Z,97471.20
2018-09-24T00:22:39.888Z,97473.75
2018-09-24T00:25:13.306Z,97475.83
2018-09-24T00:27:43.252Z,97478.42
2018-09-24T00:30:12.528Z,97473.85
2018-09-24T00:32:45.050Z,97473.39
2018-09-24T00:35:18.061Z,97475.00
2018-09-24T00:37:50.912Z,97475.77
2018-09-24T00:40:21.571Z,97476.50
2018-09-24T00:42:50.706Z,97477.75
2018-09-24T00:45:23.278Z,97483.63
2018-09-24T00:47:55.526Z,97483.08
2018-09-24T00:50:28.412Z,97487.25
2018-09-24T00:52:57.706Z,97493.95
2018-09-24T00:55:31.588Z,97502.41
2018-09-24T00:58:01.517Z,97498.91
2018-09-24T01:00:33.720Z,97500.64
2018-09-24T01:03:05.478Z,97510.88
2018-09-24T01:05:37.442Z,97521.11
2018-09-24T01:08:09.278Z,97527.00
2018-09-24T01:10:40.620Z,97527.00
2018-09-24T01:13:11.174Z,97537.88
2018-09-24T01:15:42.358Z,97552.23
2018-09-24T01:18:14.835Z,97557.27
2018-09-24T01:20:46.775Z,97567.58
2018-09-24T01:23:16.625Z,97569.28
2018-09-24T01:25:48.061Z,97569.28
2018-09-24T01:28:19.056Z,97581.04
2018-09-24T01:30:49.553Z,97577.06
2018-09-24T01:33:19.031Z,97586.63
2018-09-24T01:35:49.412Z,97582.03
2018-09-24T01:38:21.822Z,97577.48
2018-09-24T01:40:54.212Z,97588.76
2018-09-24T01:43:24.074Z,97591.67
2018-09-24T01:45:58.029Z,97607.64
2018-09-24T01:48:29.874Z,97609.20
2018-09-24T01:51:01.704Z,97609.13
2018-09-24T01:53:33.578Z,97619.17
2018-09-24T01:56:02.862Z,97621.71
2018-09-24T01:58:36.541Z,97616.27
2018-09-24T02:01:07.205Z,97617.53
2018-09-24T02:03:37.356Z,97614.63
2018-09-24T02:06:07.773Z,97616.64
2018-09-24T02:08:45.020Z,97622.61
2018-09-24T02:11:16.180Z,97624.39
2018-09-24T02:13:52.838Z,97629.49
2018-09-24T02:16:24.996Z,97624.13
2018-09-24T02:19:01.880Z,97628.28
2018-09-24T02:21:31.488Z,97624.05
2018-09-24T02:24:04.483Z,97626.47
2018-09-24T02:26:33.670Z,97623.66
2018-09-24T02:29:02.985Z,97626.69
2018-09-24T02:31:39.708Z,97618.66
2018-09-24T02:34:12.643Z,97615.90
2018-09-24T02:36:44.621Z,97627.50
2018-09-24T02:39:14.751Z,97639.23
2018-09-24T02:41:48.054Z,97636.53
2018-09-24T02:44:17.828Z,97635.63
2018-09-24T02:46:48.657Z,97653.42
2018-09-24T02:49:17.931Z,97653.16
2018-09-24T02:51:48.233Z,97644.33
2018-09-24T02:54:18.595Z,97659.98
2018-09-24T02:56:52.071Z,97661.65
2018-09-24T02:59:23.511Z,97658.22
2018-09-24T03:01:58.529Z,97664.05
2018-09-24T03:04:32.194Z,97664.88
2018-09-24T03:07:02.036Z,97665.61
2018-09-24T03:09:31.369Z,97667.34
2018-09-24T03:12:03.687Z,97676.09
2018-09-24T03:14:36.417Z,97686.22
2018-09-24T03:17:06.348Z,97695.58
2018-09-24T03:19:37.323Z,97694.35
2018-09-24T03:22:06.435Z,97701.22
2018-09-24T03:24:36.320Z,97701.66
2018-09-24T03:27:06.693Z,97698.22
2018-09-24T03:29:38.063Z,97701.22
2018-09-24T03:32:10.830Z,97700.09
2018-09-24T03:34:44.937Z,97712.33
2018-09-24T03:37:14.471Z,97725.89
2018-09-24T03:39:44.316Z,97725.16
2018-09-24T03:42:14.064Z,97740.72
2018-09-24T03:44:43.259Z,97743.69
2018-09-24T03:47:14.558Z,97752.47
2018-09-24T03:49:45.434Z,97749.44
2018-09-24T03:52:20.191Z,97757.00
2018-09-24T03:54:49.749Z,97755.55
2018-09-24T03:57:20.346Z,97763.79
2018-09-24T03:59:50.334Z,97765.77
2018-09-24T04:02:21.931Z,97780.69
2018-09-24T04:05:01.911Z,97780.63
2018-09-24T04:07:40.636Z,97782.75
2018-09-24T04:10:18.298Z,97787.42
2018-09-24T04:12:54.274Z,97793.55
2018-09-24T04:15:29.571Z,97799.08
2018-09-24T04:18:09.339Z,97800.79
2018-09-24T04:20:46.220Z,97810.55
2018-09-24T04:23:21.081Z,97810.00
2018-09-24T04:25:59.433Z,97820.05
2018-09-24T04:28:33.955Z,97819.22
2018-09-24T04:31:08.259Z,97816.76
2018-09-24T04:33:46.097Z,97815.78
2018-09-24T04:36:25.264Z,97825.90
2018-09-24T04:39:00.059Z,97828.58
2018-09-24T04:41:37.954Z,97827.16
2018-09-24T04:44:13.389Z,97833.12
2018-09-24T04:46:47.908Z,97836.01
2018-09-24T04:49:26.895Z,97844.23
2018-09-24T04:52:02.500Z,97845.43
2018-09-24T04:54:40.443Z,97846.42
2018-09-24T04:57:15.148Z,97849.06
2018-09-24T04:59:50.467Z,97853.38
2018-09-24T05:02:28.948Z,97867.69
2018-09-24T05:05:03.923Z,97872.76
2018-09-24T05:07:41.151Z,97881.97
2018-09-24T05:10:16.966Z,97893.36
2018-09-24T05:12:51.658Z,97893.71
2018-09-24T05:15:29.254Z,97900.13
2018-09-24T05:18:07.732Z,97912.51
2018-09-24T05:20:43.155Z,97916.47
2018-09-24T05:23:17.616Z,97917.34
2018-09-24T05:25:55.647Z,97934.74
2018-09-24T05:28:32.596Z,97937.20
2018-09-24T05:31:07.080Z,97945.82
2018-09-24T05:33:42.446Z,97950.89
2018-09-24T05:36:19.608Z,97957.66
2018-09-24T05:38:55.331Z,97968.05
2018-09-24T05:41:34.034Z,97976.08
2018-09-24T05:44:10.826Z,97983.68
2018-09-24T05:46:49.398Z,97986.95
2018-09-24T05:49:26.258Z,97996.34
2018-09-24T05:52:03.005Z,97997.34
2018-09-24T05:54:39.789Z,98007.67
2018-09-24T05:57:15.401Z,98012.02
2018-09-24T05:59:50.892Z,98022.59
2018-09-24T06:02:26.466Z,98025.59
2018-09-24T06:05:03.994Z,98037.00
2018-09-24T06:07:38.377Z,98038.00
2018-09-24T06:10:15.180Z,98038.87
2018-09-24T06:12:49.620Z,98043.16
2018-09-24T06:15:30.649Z,98054.37
2018-09-24T06:18:10.703Z,98062.67
2018-09-24T06:20:47.416Z,98065.50
2018-09-24T06:23:23.998Z,98066.94
2018-09-24T06:26:04.501Z,98077.55
2018-09-24T06:28:40.932Z,98082.66
2018-09-24T06:31:16.366Z,98092.39
2018-09-24T06:33:55.954Z,98085.19
2018-09-24T06:36:36.806Z,98087.68
2018-09-24T06:39:14.828Z,98098.99
2018-09-24T06:41:52.594Z,98104.58
2018-09-24T06:44:32.486Z,98107.63
2018-09-24T06:47:09.129Z,98109.95
2018-09-24T06:49:45.668Z,98117.55
2018-09-24T06:52:19.925Z,98122.97
2018-09-24T06:54:58.650Z,98133.05
2018-09-24T06:57:34.621Z,98139.25
2018-09-24T07:00:10.253Z,98142.75
2018-09-24T07:02:47.627Z,98147.86
2018-09-24T07:05:22.171Z,98160.66
2018-09-24T07:07:58.088Z,98165.58
2018-09-24T07:10:35.798Z,98167.77
2018-09-24T07:13:10.917Z,98178.34
2018-09-24T07:15:47.509Z,98177.42
2018-09-24T07:18:23.159Z,98189.19
2018-09-24T07:21:03.329Z,98191.92
2018-09-24T07:23:39.250Z,98196.38
2018-09-24T07:26:14.001Z,98194.80
2018-09-24T07:28:50.568Z,98198.83
2018-09-24T07:31:30.316Z,98207.52
2018-09-24T07:34:06.111Z,98210.25
2018-09-24T07:36:44.143Z,98212.42
2018-09-24T07:39:21.518Z,98219.73
2018-09-24T07:42:00.096Z,98219.77
2018-09-24T07:44:34.387Z,98224.13
2018-09-24T07:47:12.663Z,98226.84
2018-09-24T07:49:48.295Z,98232.91
2018-09-24T07:52:25.667Z,98229.57
2018-09-24T07:55:01.369Z,98238.26
2018-09-24T07:57:37.289Z,98241.95
2018-09-24T08:00:16.180Z,98252.61
2018-09-24T08:02:52.403Z,98252.14
2018-09-24T08:05:29.218Z,98256.02
2018-09-24T08:08:06.123Z,98261.30
2018-09-24T08:10:42.047Z,98263.91
2018-09-24T08:13:21.136Z,98281.69
2018-09-24T08:15:55.519Z,98273.34
2018-09-24T08:18:32.845Z,98275.70
2018-09-24T08:21:08.386Z,98280.64
2018-09-24T08:23:44.288Z,98280.72
2018-09-24T08:26:21.411Z,98295.63
2018-09-24T08:28:59.002Z,98294.39
2018-09-24T08:31:35.862Z,98301.28
2018-09-24T08:34:11.383Z,98304.96
2018-09-24T08:36:47.027Z,98297.81
2018-09-24T08:39:23.911Z,98303.87
2018-09-24T08:41:58.744Z,98303.64
2018-09-24T08:44:37.254Z,98300.51
2018-09-24T08:47:15.451Z,98308.13
2018-09-24T08:49:54.095Z,98308.13
2018-09-24T08:52:31.178Z,98311.75
2018-09-24T08:55:05.509Z,98314.23
2018-09-24T08:57:46.456Z,98310.55
2018-09-24T09:00:21.661Z,98311.69
2018-09-24T09:02:59.746Z,98309.88
2018-09-24T09:05:36.174Z,98310.25
2018-09-24T09:08:13.570Z,98316.17
2018-09-24T09:10:47.774Z,98310.62
2018-09-24T09:13:23.832Z,98313.39
2018-09-24T09:16:04.311Z,98318.23
2018-09-24T09:18:39.967Z,98319.55
2018-09-24T09:21:14.936Z,98325.08
2018-09-24T09:23:49.948Z,98324.96
2018-09-24T09:26:29.153Z,98319.75
2018-09-24T09:29:06.695Z,98322.67
2018-09-24T09:31:41.539Z,98320.22
2018-09-24T09:34:18.060Z,98329.80
2018-09-24T09:36:52.842Z,98330.23
2018-09-24T09:39:29.411Z,98334.11
2018-09-24T09:42:07.098Z,98331.41
2018-09-24T09:44:43.834Z,98335.58
2018-09-24T09:47:19.955Z,98328.84
2018-09-24T09:49:56.578Z,98327.31
2018-09-24T09:52:31.666Z,98322.44
2018-09-24T09:55:07.207Z,98322.67
2018-09-24T09:57:43.239Z,98321.26
2018-09-24T10:00:20.667Z,98323.05
2018-09-24T10:02:59.489Z,98315.92
2018-09-24T10:05:36.095Z,98326.93
2018-09-24T10:08:15.871Z,98315.90
2018-09-24T10:10:53.880Z,98323.24
2018-09-24T10:13:29.409Z,98324.47
2018-09-24T10:16:06.099Z,98316.56
2018-09-24T10:18:41.987Z,98327.91
2018-09-24T10:21:17.519Z,98320.44
2018-09-24T10:23:52.187Z,98324.46
2018-09-24T10:26:31.061Z,98322.48
2018-09-24T10:29:08.506Z,98320.27
2018-09-24T10:31:45.942Z,98315.87
2018-09-24T10:34:22.919Z,98320.84
2018-09-24T10:36:59.479Z,98325.36
2018-09-24T10:42:36.923Z,98324.09
2018-09-24T10:45:11.915Z,98322.76
2018-09-24T10:47:46.603Z,98329.55
2018-09-24T10:50:20.993Z,98327.79
2018-09-24T10:52:55.403Z,98330.23
2018-09-24T10:55:30.400Z,98325.14
2018-09-24T10:58:04.856Z,98328.66
2018-09-24T11:00:40.792Z,98332.84
2018-09-24T11:03:15.714Z,98333.01
2018-09-24T11:05:50.169Z,98327.53
2018-09-24T11:08:25.110Z,98322.76
2018-09-24T11:10:59.797Z,98328.23
2018-09-24T11:13:34.356Z,98327.19
2018-09-24T11:16:09.219Z,98318.39
2018-09-24T11:18:43.613Z,98320.24
2018-09-24T11:21:18.439Z,98323.72
2018-09-24T11:23:53.036Z,98319.52
2018-09-24T11:29:02.995Z,98319.80
2018-09-24T11:31:37.762Z,98319.42
2018-09-24T11:34:12.958Z,98315.69
2018-09-24T11:36:47.756Z,98319.75
2018-09-24T11:39:22.203Z,98325.34
2018-09-24T11:41:56.903Z,98324.14
2018-09-24T11:44:31.687Z,98325.81
2018-09-24T11:47:06.597Z,98331.77
2018-09-24T11:49:41.017Z,98320.97
2018-09-24T11:52:15.859Z,98324.78
2018-09-24T11:54:51.330Z,98324.85
2018-09-24T11:57:25.982Z,98319.47
2018-09-24T12:00:00.684Z,98319.26
2018-09-24T12:02:35.404Z,98320.97
2018-09-24T12:05:09.988Z,98338.41
2018-09-24T12:07:44.777Z,98330.52
2018-09-24T12:10:20.148Z,98335.23
2018-09-24T12:12:54.727Z,98330.81
2018-09-24T12:15:29.671Z,98334.64
2018-09-24T12:18:04.445Z,98338.87
2018-09-24T12:20:39.175Z,98337.44
2018-09-24T12:23:13.925Z,98334.59
2018-09-24T12:25:48.750Z,98326.03
2018-09-24T12:28:23.549Z,98325.38
2018-09-24T12:30:58.376Z,98316.58
2018-09-24T12:33:33.404Z,98327.91
2018-09-24T12:36:07.906Z,98322.66
2018-09-24T12:41:29.584Z,98320.45
2018-09-24T12:44:04.972Z,98316.61
2018-09-24T12:46:39.681Z,98318.09
2018-09-24T12:49:14.208Z,98315.34
2018-09-24T12:51:49.088Z,98311.98
2018-09-24T12:54:24.438Z,98304.78
2018-09-24T12:56:59.312Z,98309.92
2018-09-24T12:59:34.178Z,98314.16
2018-09-24T13:02:09.386Z,98312.72
2018-09-24T13:04:44.379Z,98316.42
2018-09-24T13:07:19.098Z,98313.27
2018-09-24T13:09:53.543Z,98318.09
2018-09-24T13:12:28.346Z,98315.78
2018-09-24T13:15:04.502Z,98317.91
2018-09-24T13:17:40.372Z,98309.44
2018-09-24T13:20:15.713Z,98308.37
2018-09-24T13:22:50.549Z,98308.03
2018-09-24T13:25:26.589Z,98304.00
2018-09-24T13:28:04.702Z,98301.14
2018-09-24T13:30:39.205Z,98296.80
2018-09-24T13:33:13.783Z,98302.16
2018-09-24T13:35:49.612Z,98301.87
2018-09-24T13:38:24.914Z,98305.62
2018-09-24T13:41:00.888Z,98310.94
2018-09-24T13:43:36.054Z,98300.67
2018-09-24T13:46:10.874Z,98284.58
2018-09-24T13:48:46.178Z,98308.66
2018-09-24T13:51:22.572Z,98312.98
2018-09-24T13:53:58.930Z,98317.11
2018-09-24T13:56:33.731Z,98315.27
2018-09-24T13:59:08.729Z,98317.72
2018-09-24T14:01:44.289Z,98307.14
2018-09-24T14:04:20.558Z,98306.95
2018-09-24T14:06:55.690Z,98305.02
2018-09-24T14:09:30.387Z,98306.52
2018-09-24T14:12:05.280Z,98309.73
2018-09-24T14:27:37.746Z,98313.11
2018-09-24T14:30:12.397Z,98307.11
2018-09-24T14:32:47.038Z,98301.95
2018-09-24T14:35:21.831Z,98294.96
2018-09-24T14:37:56.513Z,98296.80
2018-09-24T14:40:32.242Z,98296.13
2018-09-24T14:43:06.872Z,98299.88
2018-09-24T14:45:41.473Z,98294.13
2018-09-24T14:48:16.536Z,98296.83
2018-09-24T14:50:50.967Z,98298.78
2018-09-24T14:53:25.928Z,98290.88
2018-09-24T14:56:07.511Z,98292.77
2018-09-24T14:58:42.332Z,98289.33
2018-09-24T15:01:17.269Z,98282.11
2018-09-24T15:03:52.338Z,98294.05
2018-09-24T15:06:27.254Z,98285.69
2018-09-24T15:09:02.551Z,98295.53
2018-09-24T15:11:37.639Z,98285.63
2018-09-24T15:14:12.948Z,98297.36
2018-09-24T15:16:47.433Z,98292.63
2018-09-24T15:19:23.531Z,98301.25
2018-09-24T15:21:58.437Z,98308.03
2018-09-24T15:24:33.943Z,98308.87
2018-09-24T15:27:09.499Z,98310.23
2018-09-24T15:29:44.261Z,98314.93
2018-09-24T15:32:18.850Z,98317.98
2018-09-24T15:34:54.555Z,98321.95
2018-09-24T15:37:30.097Z,98318.13
2018-09-24T15:40:05.016Z,98317.87
2018-09-24T15:42:40.475Z,98323.13
2018-09-24T15:45:15.605Z,98319.64
2018-09-24T15:47:51.224Z,98318.31
2018-09-24T15:50:26.099Z,98315.81
2018-09-24T15:53:01.575Z,98318.41
2018-09-24T15:55:36.609Z,98321.86
2018-09-24T15:58:13.152Z,98322.22
2018-09-24T16:00:48.029Z,98327.67
2018-09-24T16:03:23.480Z,98324.05
2018-09-24T16:05:58.457Z,98331.09
2018-09-24T16:08:33.721Z,98320.75
2018-09-24T16:11:10.364Z,98323.58
2018-09-24T16:13:45.183Z,98323.91
2018-09-24T16:16:20.504Z,98322.55
2018-09-24T16:18:55.230Z,98328.45
2018-09-24T16:21:30.243Z,98324.14
2018-09-24T16:24:06.393Z,98325.73
2018-09-24T16:26:41.909Z,98332.43
2018-09-24T16:29:18.445Z,98333.94
2018-09-24T16:31:54.058Z,98337.90
2018-09-24T16:34:29.098Z,98344.89
2018-09-24T16:37:04.740Z,98348.53
2018-09-24T16:39:40.184Z,98352.20
2018-09-24T16:42:15.101Z,98351.97
2018-09-24T16:44:51.658Z,98353.13
2018-09-24T16:47:26.158Z,98361.41
2018-09-24T16:50:01.876Z,98366.70
2018-09-24T16:52:36.434Z,98366.09
2018-09-24T16:55:10.903Z,98366.73
2018-09-24T16:57:46.371Z,98369.07
2018-09-24T17:00:20.952Z,98377.37
2018-09-24T17:02:56.976Z,98377.23
2018-09-24T17:05:31.428Z,98386.42
2018-09-24T17:08:07.274Z,98388.39
2018-09-24T17:10:41.645Z,98386.90
2018-09-24T17:13:16.290Z,98395.63
2018-09-24T17:15:50.944Z,98392.92
2018-09-24T17:18:25.461Z,98405.81
2018-09-24T17:21:01.222Z,98399.27
2018-09-24T17:23:37.255Z,98407.18
2018-09-24T17:26:11.765Z,98398.53
2018-09-24T17:28:47.158Z,98407.75
2018-09-24T17:31:21.986Z,98407.23
2018-09-24T17:33:57.986Z,98409.26
2018-09-24T17:36:33.305Z,98410.89
2018-09-24T17:39:09.259Z,98424.78
2018-09-24T17:41:44.086Z,98409.70
2018-09-24T17:44:18.718Z,98428.16
2018-09-24T17:46:55.106Z,98429.74
2018-09-24T17:49:29.718Z,98430.37
2018-09-24T17:52:06.463Z,98428.90
2018-09-24T17:54:41.581Z,98435.56
2018-09-24T17:57:16.285Z,98433.69
2018-09-24T17:59:51.011Z,98437.41
2018-09-24T18:02:26.214Z,98439.81
2018-09-24T18:05:00.966Z,98446.47
2018-09-24T18:07:35.866Z,98448.76
2018-09-24T18:10:10.899Z,98444.25
2018-09-24T18:12:46.097Z,98451.20
2018-09-24T18:15:21.073Z,98457.33
2018-09-24T18:17:57.001Z,98456.67
2018-09-24T18:20:33.691Z,98461.17
2018-09-24T18:23:09.581Z,98464.31
2018-09-24T18:25:45.083Z,98464.05
2018-09-24T18:28:19.910Z,98470.59
2018-09-24T18:30:55.943Z,98479.02
2018-09-24T18:33:32.890Z,98477.63
2018-09-24T18:36:07.800Z,98480.41
2018-09-24T18:38:42.674Z,98490.52
2018-09-24T18:41:18.210Z,98490.67
2018-09-24T18:43:54.999Z,98500.13
2018-09-24T18:46:30.063Z,98499.89
2018-09-24T18:49:05.385Z,98505.20
2018-09-24T18:51:41.172Z,98511.63
2018-09-24T18:54:19.776Z,98511.28
2018-09-24T18:56:54.898Z,98516.35
2018-09-24T18:59:30.029Z,98517.99
2018-09-24T19:02:05.605Z,98520.38
2018-09-24T19:04:40.813Z,98520.62
2018-09-24T19:07:21.133Z,98526.84
2018-09-24T19:09:55.782Z,98525.91
2018-09-24T19:12:31.693Z,98529.17
2018-09-24T19:15:06.800Z,98525.66
2018-09-24T19:17:41.785Z,98523.89
2018-09-24T19:20:16.785Z,98521.27
2018-09-24T19:22:51.970Z,98526.70
2018-09-24T19:25:27.220Z,98521.98
2018-09-24T19:28:02.992Z,98519.30
2018-09-24T19:30:39.963Z,98522.66
2018-09-24T19:33:17.896Z,98524.26
2018-09-24T19:35:55.533Z,98530.14
2018-09-24T19:38:34.239Z,98530.14
2018-09-24T19:41:09.782Z,98530.92
2018-09-24T19:43:46.773Z,98533.68
2018-09-24T19:46:22.311Z,98535.62
2018-09-24T19:48:58.906Z,98543.92
2018-09-24T19:51:34.889Z,98538.59
2018-09-24T19:54:10.542Z,98546.86
2018-09-24T19:56:45.776Z,98540.75
2018-09-24T19:59:20.999Z,98536.34
2018-09-24T20:01:55.885Z,98537.95
2018-09-24T20:04:31.101Z,98543.77
2018-09-24T20:07:06.588Z,98543.71
2018-09-24T20:09:42.312Z,98537.72
2018-09-24T20:12:16.964Z,98540.09
2018-09-24T20:14:51.744Z,98547.45
2018-09-24T20:17:27.187Z,98541.67
2018-09-24T20:20:01.829Z,98549.11
2018-09-24T20:22:37.835Z,98546.01
2018-09-24T20:25:13.761Z,98548.27
2018-09-24T20:27:48.404Z,98551.13
2018-09-24T20:30:23.405Z,98551.39
2018-09-24T20:33:00.382Z,98552.14
2018-09-24T20:35:35.121Z,98562.71
2018-09-24T20:38:11.413Z,98564.63
2018-09-24T20:40:47.021Z,98571.98
2018-09-24T20:43:21.535Z,98565.92
2018-09-24T20:45:58.984Z,98568.84
2018-09-24T20:48:34.177Z,98578.47
2018-09-24T20:51:08.812Z,98579.16
2018-09-24T20:53:44.678Z,98579.93
2018-09-24T20:56:19.290Z,98586.25
2018-09-24T20:58:54.704Z,98588.33
2018-09-24T21:01:29.908Z,98584.53
2018-09-24T21:04:05.585Z,98585.25
2018-09-24T21:06:42.105Z,98590.63
2018-09-24T21:09:16.655Z,98592.32
2018-09-24T21:11:51.847Z,98591.38
2018-09-24T21:14:27.970Z,98593.09
2018-09-24T21:17:02.815Z,98590.45
2018-09-24T21:19:38.170Z,98592.03
2018-09-24T21:22:13.009Z,98596.28
2018-09-24T21:24:49.041Z,98598.03
2018-09-24T21:27:25.226Z,98598.97
2018-09-24T21:30:00.294Z,98599.75
2018-09-24T21:32:35.642Z,98598.03
2018-09-24T21:35:10.319Z,98605.45
2018-09-24T21:37:45.849Z,98603.70
2018-09-24T21:40:21.351Z,98604.84
2018-09-24T21:42:57.534Z,98605.16
2018-09-24T21:45:33.045Z,98599.97
2018-09-24T21:48:07.887Z,98599.97
2018-09-24T21:50:42.509Z,98605.94
2018-09-24T21:53:17.493Z,98605.03
2018-09-24T21:55:52.646Z,98600.75
2018-09-24T21:58:28.981Z,98607.39
2018-09-24T22:01:04.100Z,98606.62
2018-09-24T22:03:39.317Z,98612.61
2018-09-24T22:06:14.165Z,98615.27
2018-09-24T22:08:48.949Z,98608.95
2018-09-24T22:11:26.646Z,98609.56
2018-09-24T22:14:02.595Z,98611.28
2018-09-24T22:16:37.595Z,98611.67
2018-09-24T22:19:12.200Z,98610.19
2018-09-24T22:21:48.259Z,98608.75
2018-09-24T22:24:22.828Z,98608.39
2018-09-24T22:27:00.515Z,98611.86
2018-09-24T22:29:35.526Z,98606.03
2018-09-24T22:32:11.099Z,98617.86
2018-09-24T22:34:45.695Z,98609.82
2018-09-24T22:37:21.543Z,98612.80
2018-09-24T22:39:58.205Z,98619.73
2018-09-24T22:42:33.057Z,98624.14
2018-09-24T22:45:08.623Z,98624.59
2018-09-24T22:47:43.233Z,98617.01
2018-09-24T22:50:19.186Z,98626.80
2018-09-24T22:52:55.047Z,98631.05
2018-09-24T22:55:29.486Z,98630.59
2018-09-24T22:58:04.411Z,98631.30
2018-09-24T23:00:38.915Z,98632.50
2018-09-24T23:03:13.691Z,98633.97
2018-09-24T23:05:48.223Z,98638.25
2018-09-24T23:08:22.874Z,98642.49
2018-09-24T23:10:57.364Z,98640.91
2018-09-24T23:13:31.925Z,98638.38
2018-09-24T23:16:06.325Z,98639.84
2018-09-24T23:18:40.796Z,98644.89
2018-09-24T23:21:15.613Z,98638.89
2018-09-24T23:23:51.132Z,98643.02
2018-09-24T23:26:25.989Z,98647.13
2018-09-24T23:29:01.400Z,98644.86
2018-09-24T23:31:35.973Z,98646.45
2018-09-24T23:34:10.855Z,98649.20
2018-09-24T23:36:45.987Z,98651.98
2018-09-24T23:39:22.329Z,98655.71
2018-09-24T23:42:00.300Z,98653.83
2018-09-24T23:44:35.279Z,98665.39
2018-09-24T23:47:12.682Z,98662.87
2018-09-24T23:49:47.336Z,98664.45
2018-09-24T23:52:22.309Z,98666.36
2018-09-24T23:54:57.597Z,98659.77
2018-09-24T23:57:32.300Z,98671.59
